Time;durP1;ratioP1;P1;durP2;ratioP2;P2;SDS_P1;SDS_P2;PMS_P1;PMS_P2;Temp;Humidity;BMP_temperature;BMP_pressure;BME280_temperature;BME280_humidity;BME280_pressure;Samples;Min_cycle;Max_cycle;Signal;HPM_P1;HPM_P2
2021/12/03 00:01:15;;;;;;;2.03;1.73;;;;;;;5.61;100.00;98668.31;1434969;89;21428;-83
2021/12/03 00:03:41;;;;;;;2.63;2.20;;;;;;;5.57;100.00;98671.75;1432714;91;22558;-83
2021/12/03 00:06:07;;;;;;;2.57;1.60;;;;;;;5.54;100.00;98684.38;1430853;91;21449;-83
2021/12/03 00:08:33;;;;;;;2.47;1.93;;;;;;;5.45;100.00;98682.21;1416086;91;21516;-83
2021/12/03 00:11:02;;;;;;;3.37;1.97;;;;;;;5.47;100.00;98685.97;1430809;91;21450;-83
2021/12/03 00:13:32;;;;;;;2.60;1.90;;;;;;;5.38;100.00;98693.83;1434703;91;21630;-83
2021/12/03 00:16:00;;;;;;;1.90;1.57;;;;;;;5.34;100.00;98701.66;1429256;91;21509;-83
2021/12/03 00:18:27;;;;;;;1.30;1.00;;;;;;;5.36;100.00;98706.77;1432726;91;21464;-83
2021/12/03 00:20:57;;;;;;;2.30;1.00;;;;;;;5.24;100.00;98714.09;1434139;91;21441;-83
2021/12/03 00:23:27;;;;;;;1.83;1.43;;;;;;;5.19;100.00;98720.28;1428088;91;21500;-90
2021/12/03 00:25:55;;;;;;;1.12;1.00;;;;;;;5.12;100.00;98721.86;1430579;91;21443;-90
2021/12/03 00:28:21;;;;;;;3.63;1.37;;;;;;;5.15;100.00;98726.80;1434623;91;21486;-88
2021/12/03 00:30:50;;;;;;;2.33;1.70;;;;;;;5.13;100.00;98722.21;1434474;91;21405;-88
2021/12/03 00:33:17;;;;;;;2.03;1.17;;;;;;;5.16;100.00;98721.91;1414202;91;22425;-89
2021/12/03 00:35:43;;;;;;;0.93;0.83;;;;;;;5.13;100.00;98706.48;1436395;89;21471;-92
2021/12/03 00:38:09;;;;;;;1.73;1.47;;;;;;;5.05;100.00;98703.80;1430147;89;21491;-91
2021/12/03 00:40:39;;;;;;;1.20;1.00;;;;;;;5.04;100.00;98710.03;1448778;91;21493;-93
2021/12/03 00:43:07;;;;;;;0.87;0.83;;;;;;;5.08;100.00;98717.91;1446696;90;21510;-93
2021/12/03 00:45:36;;;;;;;1.30;1.00;;;;;;;5.01;100.00;98718.20;1454421;90;21540;-92
2021/12/03 00:48:03;;;;;;;1.10;0.67;;;;;;;4.93;100.00;98715.03;1428434;90;22339;-92
2021/12/03 00:50:32;;;;;;;2.77;0.90;;;;;;;4.91;100.00;98719.10;1457383;89;21531;-91
2021/12/03 00:53:03;;;;;;;1.32;1.17;;;;;;;4.91;100.00;98723.03;1447670;90;21531;-91
2021/12/03 00:55:31;;;;;;;1.50;1.00;;;;;;;4.96;100.00;98735.20;1427239;90;22456;-92
2021/12/03 00:57:58;;;;;;;1.20;1.00;;;;;;;4.95;100.00;98738.81;1458997;90;22367;-91
2021/12/03 01:00:29;;;;;;;1.77;0.93;;;;;;;4.97;100.00;98739.95;1454120;90;21496;-91
2021/12/03 01:03:00;;;;;;;1.13;0.67;;;;;;;5.00;100.00;98740.95;1463115;90;21495;-93
2021/12/03 01:05:27;;;;;;;0.50;0.50;;;;;;;4.96;100.00;98737.83;1442669;89;21547;-93
2021/12/03 01:07:55;;;;;;;2.97;1.10;;;;;;;4.82;100.00;98749.34;1423449;90;21683;-92
2021/12/03 01:10:23;;;;;;;0.80;0.70;;;;;;;4.84;100.00;98742.98;1441707;90;22287;-91
2021/12/03 01:12:49;;;;;;;1.03;0.80;;;;;;;4.77;100.00;98745.86;1448082;89;21480;-92
2021/12/03 01:15:20;;;;;;;3.20;1.17;;;;;;;4.77;100.00;98747.66;1447669;89;21487;-92
2021/12/03 01:17:51;;;;;;;1.80;0.80;;;;;;;4.78;100.00;98759.81;1451254;88;21510;-89
2021/12/03 01:20:16;;;;;;;1.37;1.03;;;;;;;4.70;100.00;98759.25;1453706;89;21561;-89
2021/12/03 01:22:49;;;;;;;1.10;0.93;;;;;;;4.69;100.00;98766.75;1447412;89;21640;-87
2021/12/03 01:25:18;;;;;;;1.13;0.70;;;;;;;4.49;99.28;98767.42;1455496;89;21537;-90
2021/12/03 01:27:46;;;;;;;0.70;0.50;;;;;;;4.41;99.92;98764.23;1459737;89;22321;-91
2021/12/03 01:30:16;;;;;;;2.00;1.03;;;;;;;4.26;100.00;98763.09;1457721;89;21567;-90
2021/12/03 01:32:44;;;;;;;1.05;0.60;;;;;;;4.04;100.00;98759.91;1449656;89;21560;-89
2021/12/03 01:35:11;;;;;;;0.90;0.53;;;;;;;3.97;100.00;98751.00;1446417;89;22336;-90
2021/12/03 01:37:39;;;;;;;0.40;0.40;;;;;;;3.97;100.00;98751.47;1452069;89;21523;-88
2021/12/03 01:40:10;;;;;;;0.63;0.57;;;;;;;3.88;100.00;98756.27;1453316;89;21457;-90
2021/12/03 01:42:37;;;;;;;;;;;;;;;3.87;100.00;98759.37;1456456;89;21508;-89
2021/12/03 01:45:07;;;;;;;0.60;0.60;;;;;;;3.80;100.00;98753.91;1448622;90;20384;-89
2021/12/03 01:47:33;;;;;;;0.50;0.47;;;;;;;3.68;100.00;98753.73;1447246;90;21429;-88
2021/12/03 01:49:59;;;;;;;1.63;0.77;;;;;;;3.68;100.00;98753.73;1451064;89;21415;-89
2021/12/03 01:52:26;;;;;;;0.40;0.40;;;;;;;3.70;100.00;98761.46;1456308;89;22442;-90
2021/12/03 01:54:53;;;;;;;0.23;0.23;;;;;;;3.68;100.00;98762.08;1449578;89;22337;-90
2021/12/03 01:57:20;;;;;;;0.30;0.30;;;;;;;3.66;100.00;98763.55;1463280;89;22218;-91
2021/12/03 01:59:46;;;;;;;1.00;0.57;;;;;;;3.65;100.00;98763.67;1447349;89;24299;-89
2021/12/03 02:02:13;;;;;;;0.70;0.50;;;;;;;3.61;100.00;98770.51;1456363;89;22158;-89
2021/12/03 02:04:41;;;;;;;1.00;0.40;;;;;;;3.64;100.00;98767.27;1457701;89;22137;-89
2021/12/03 02:07:07;;;;;;;0.40;0.40;;;;;;;3.58;100.00;98773.41;1457474;88;22205;-89
2021/12/03 02:09:34;;;;;;;1.23;0.80;;;;;;;3.60;100.00;98777.20;1467009;88;22100;-89
2021/12/03 02:12:00;;;;;;;0.50;0.40;;;;;;;3.62;100.00;98779.17;1464542;88;22070;-89
2021/12/03 02:14:26;;;;;;;2.40;0.60;;;;;;;3.55;100.00;98779.42;1459375;88;22734;-90
2021/12/03 02:17:18;;;;;;;0.50;0.40;;;;;;;3.54;100.00;98782.52;1443035;90;22149;-93
2021/12/03 02:20:52;;;;;;;1.37;0.50;;;;;;;3.50;100.00;98786.38;1423328;90;22076;-91
2021/12/03 02:23:20;;;;;;;1.00;0.70;;;;;;;3.47;100.00;98779.30;1433888;84;22312;-86
2021/12/03 02:25:48;;;;;;;1.27;0.67;;;;;;;3.46;100.00;98792.88;1468152;87;22081;-90
2021/12/03 02:28:17;;;;;;;1.77;1.00;;;;;;;3.44;100.00;98796.10;1479378;88;23115;-90
2021/12/03 02:30:45;;;;;;;1.03;0.67;;;;;;;3.44;100.00;98794.80;1482849;88;22161;-89
2021/12/03 02:33:12;;;;;;;0.83;0.63;;;;;;;3.37;100.00;98796.34;1479550;87;22647;-89
2021/12/03 02:35:40;;;;;;;0.63;0.53;;;;;;;3.30;100.00;98799.16;1488727;86;22121;-90
2021/12/03 02:38:08;;;;;;;0.70;0.60;;;;;;;3.34;100.00;98803.17;1495247;87;22136;-90
2021/12/03 02:40:34;;;;;;;1.30;0.77;;;;;;;3.31;100.00;98802.96;1474569;87;22041;-89
2021/12/03 02:43:01;;;;;;;2.00;0.73;;;;;;;3.37;100.00;98806.80;1473456;87;23384;-88
2021/12/03 02:45:27;;;;;;;1.23;0.93;;;;;;;3.33;100.00;98800.19;1471704;87;22695;-91
2021/12/03 02:47:53;;;;;;;1.43;0.80;;;;;;;3.23;100.00;98801.53;1487127;87;22202;-92
2021/12/03 02:50:20;;;;;;;1.17;0.80;;;;;;;3.20;100.00;98800.50;1492109;87;22128;-91
2021/12/03 02:52:49;;;;;;;2.20;1.43;;;;;;;3.15;100.00;98798.30;1478156;87;22114;-91
2021/12/03 02:55:16;;;;;;;1.60;1.10;;;;;;;3.07;100.00;98802.09;1471764;87;22700;-90
2021/12/03 02:57:42;;;;;;;1.97;1.40;;;;;;;3.03;100.00;98803.34;1478982;87;22120;-91
2021/12/03 03:00:13;;;;;;;2.20;1.10;;;;;;;3.04;100.00;98814.62;1483358;87;23087;-90
2021/12/03 03:02:40;;;;;;;2.97;1.67;;;;;;;3.04;100.00;98818.05;1481895;87;23060;-92
2021/12/03 03:05:09;;;;;;;1.50;0.90;;;;;;;2.97;100.00;98826.12;1489089;87;22152;-90
2021/12/03 03:07:35;;;;;;;2.67;1.63;;;;;;;2.95;100.00;98822.81;1498421;87;22134;-89
2021/12/03 03:10:10;;;;;;;2.50;1.50;;;;;;;2.98;100.00;98839.52;1490170;87;23149;-91
2021/12/03 03:12:39;;;;;;;3.13;1.93;;;;;;;2.98;100.00;98839.52;1481650;87;22399;-92
2021/12/03 03:15:09;;;;;;;4.33;1.87;;;;;;;2.96;100.00;98844.05;1462983;88;22212;-89
2021/12/03 03:17:37;;;;;;;2.80;2.27;;;;;;;2.90;100.00;98856.36;1467860;88;22175;-90
2021/12/03 03:20:06;;;;;;;2.57;1.50;;;;;;;2.91;100.00;98854.11;1475431;88;22211;-90
2021/12/03 03:22:34;;;;;;;3.17;1.83;;;;;;;2.87;100.00;98854.84;1468187;88;22175;-91
2021/12/03 03:25:01;;;;;;;7.90;3.50;;;;;;;2.88;100.00;98855.20;1496294;87;22181;-89
2021/12/03 03:27:29;;;;;;;5.50;2.37;;;;;;;2.91;100.00;98863.26;1505793;86;22344;-89
2021/12/03 03:29:56;;;;;;;3.60;2.60;;;;;;;2.86;98.96;98873.29;1507290;86;22270;-91
2021/12/03 03:32:23;;;;;;;4.27;2.60;;;;;;;2.85;99.49;98880.77;1492444;86;22189;-91
2021/12/03 03:34:49;;;;;;;2.97;1.97;;;;;;;2.80;99.43;98882.98;1482631;87;22147;-92
2021/12/03 03:37:18;;;;;;;3.70;2.07;;;;;;;2.80;99.24;98886.41;1464625;88;22965;-91
2021/12/03 03:39:46;;;;;;;2.73;1.77;;;;;;;2.80;99.24;98886.41;1485674;87;22086;-91
2021/12/03 03:42:12;;;;;;;2.63;1.50;;;;;;;2.86;99.36;98894.19;1473419;87;22072;-91
2021/12/03 03:44:40;;;;;;;3.67;2.20;;;;;;;2.80;98.81;98902.58;1484497;87;22160;-90
2021/12/03 03:47:07;;;;;;;3.60;2.03;;;;;;;2.78;98.74;98905.80;1461811;87;22364;-92
2021/12/03 03:49:35;;;;;;;3.23;1.93;;;;;;;2.70;97.88;98916.91;1462633;88;22116;-90
2021/12/03 03:52:03;;;;;;;6.97;2.10;;;;;;;2.64;98.53;98918.27;1502180;88;22152;-89
2021/12/03 03:54:29;;;;;;;3.60;1.60;;;;;;;2.58;98.03;98923.21;1487547;87;22205;-90
2021/12/03 03:56:57;;;;;;;2.77;2.00;;;;;;;2.54;98.13;98927.88;1495390;88;21990;-90
2021/12/03 03:59:24;;;;;;;2.20;1.50;;;;;;;2.47;97.68;98937.19;1461998;87;23069;-92
2021/12/03 04:01:53;;;;;;;3.63;1.70;;;;;;;2.42;98.74;98946.75;1490116;87;21925;-92
2021/12/03 04:06:48;;;;;;;2.67;1.83;;;;;;;2.34;97.51;98951.80;1448508;90;21973;-90
2021/12/03 04:09:14;;;;;;;4.70;2.03;;;;;;;2.14;97.75;98943.05;1427361;91;21974;-91
2021/12/03 04:11:40;;;;;;;2.73;1.47;;;;;;;2.10;97.73;98958.63;1414963;91;21937;-93
2021/12/03 04:14:06;;;;;;;5.83;2.10;;;;;;;2.10;97.73;98958.63;1432359;91;21894;-90
2021/12/03 04:16:33;;;;;;;2.97;1.47;;;;;;;2.13;98.44;98961.44;1435475;92;21789;-88
2021/12/03 04:19:00;;;;;;;1.83;1.30;;;;;;;2.00;97.56;98972.91;1423358;92;22088;-90
2021/12/03 04:21:26;;;;;;;3.93;1.50;;;;;;;1.90;97.03;98972.50;1422478;92;22745;-88
2021/12/03 04:23:53;;;;;;;3.87;1.20;;;;;;;1.78;96.76;98978.26;1430210;91;22037;-88
2021/12/03 04:26:20;;;;;;;2.60;1.23;;;;;;;1.68;97.25;98989.94;1426671;92;21825;-86
2021/12/03 04:28:47;;;;;;;3.13;1.83;;;;;;;1.64;96.50;98989.86;1425100;92;21804;-87
2021/12/03 04:31:13;;;;;;;2.30;1.00;;;;;;;1.60;98.15;99011.91;1423648;92;21788;-87
2021/12/03 04:33:42;;;;;;;4.90;1.23;;;;;;;1.53;97.01;98995.12;1410069;92;21991;-87
2021/12/03 04:36:09;;;;;;;3.30;1.87;;;;;;;1.51;97.40;98991.80;1411436;92;22694;-88
2021/12/03 04:38:35;;;;;;;3.03;1.80;;;;;;;1.46;97.13;99014.80;1423354;92;21878;-87
2021/12/03 04:41:02;;;;;;;2.20;1.50;;;;;;;1.47;97.73;99015.17;1433997;92;21745;-90
2021/12/03 04:43:31;;;;;;;4.67;2.30;;;;;;;1.42;97.80;99018.63;1424521;90;23060;-89
2021/12/03 04:45:57;;;;;;;3.63;1.27;;;;;;;1.33;97.54;99019.71;1423087;92;22638;-87
2021/12/03 04:48:23;;;;;;;1.97;0.80;;;;;;;1.23;96.20;99044.84;1420252;91;21932;-87
2021/12/03 04:50:50;;;;;;;4.10;1.87;;;;;;;1.12;95.42;99048.33;1434253;92;21838;-86
2021/12/03 04:53:19;;;;;;;4.13;1.70;;;;;;;1.12;96.38;99051.38;1422958;92;21834;-88
2021/12/03 04:55:46;;;;;;;2.33;1.73;;;;;;;1.09;96.46;99070.72;1417244;92;21999;-86
2021/12/03 04:58:13;;;;;;;5.80;1.63;;;;;;;1.05;95.71;99070.59;1430044;92;21765;-85
2021/12/03 05:00:44;;;;;;;1.90;1.20;;;;;;;0.92;93.91;99085.50;1424639;92;21830;-86
2021/12/03 05:03:10;;;;;;;3.55;1.70;;;;;;;0.92;93.82;99084.68;1424006;92;21755;-87
2021/12/03 05:05:39;;;;;;;5.07;1.90;;;;;;;0.86;94.55;99096.41;1422718;90;22504;-86
2021/12/03 05:08:10;;;;;;;7.60;2.63;;;;;;;0.82;94.57;99101.03;1441887;90;21706;-86
2021/12/03 05:10:41;;;;;;;4.93;1.90;;;;;;;0.77;94.55;99126.59;1441415;90;21787;-86
2021/12/03 05:13:13;;;;;;;6.55;1.92;;;;;;;0.74;92.92;99124.22;1425727;90;21762;-85
2021/12/03 05:15:41;;;;;;;7.43;2.33;;;;;;;0.65;90.61;99136.17;1438640;90;21450;-86
2021/12/03 05:18:12;;;;;;;11.13;2.10;;;;;;;0.71;92.37;99148.37;1440109;90;21904;-86
2021/12/03 05:20:39;;;;;;;5.25;1.90;;;;;;;0.64;89.01;99151.92;1448708;90;21742;-85
2021/12/03 05:23:05;;;;;;;4.70;1.73;;;;;;;0.67;89.39;99152.52;1434397;90;21598;-85
2021/12/03 05:25:33;;;;;;;6.30;2.17;;;;;;;0.66;87.82;99148.27;1438678;91;21771;-86
2021/12/03 05:28:00;;;;;;;6.13;2.33;;;;;;;0.71;89.11;99160.92;1438303;91;22731;-85
2021/12/03 05:30:28;;;;;;;4.77;2.00;;;;;;;0.67;85.95;99164.71;1424666;91;22708;-86
2021/12/03 05:32:55;;;;;;;6.53;2.20;;;;;;;0.65;86.74;99158.78;1435705;91;21548;-85
2021/12/03 05:35:24;;;;;;;4.47;2.10;;;;;;;0.66;84.86;99170.84;1437389;89;21639;-87
2021/12/03 05:37:50;;;;;;;3.17;2.10;;;;;;;0.71;83.29;99157.02;1433324;90;21765;-85
2021/12/03 05:40:17;;;;;;;7.60;3.63;;;;;;;0.71;83.08;99163.52;1442180;89;21739;-85
2021/12/03 05:42:45;;;;;;;7.77;2.27;;;;;;;0.73;83.43;99179.88;1420531;91;21826;-84
2021/12/03 05:45:16;;;;;;;14.13;2.57;;;;;;;0.76;83.00;99178.33;1434368;89;21845;-86
2021/12/03 05:47:43;;;;;;;5.17;2.43;;;;;;;0.76;82.35;99200.95;1433035;91;21888;-84
2021/12/03 05:50:13;;;;;;;3.57;1.57;;;;;;;0.80;82.01;99201.06;1445826;89;21758;-85
2021/12/03 05:52:39;;;;;;;3.80;1.67;;;;;;;0.83;81.49;99204.27;1436857;89;22600;-85
2021/12/03 05:55:08;;;;;;;6.47;2.33;;;;;;;0.81;80.90;99211.38;1448977;89;21827;-85
2021/12/03 05:57:35;;;;;;;6.47;2.50;;;;;;;0.84;81.51;99208.55;1440761;89;22608;-85
2021/12/03 06:00:07;;;;;;;8.20;2.43;;;;;;;0.83;80.18;99223.80;1448926;89;22293;-85
2021/12/03 06:02:33;;;;;;;7.87;2.80;;;;;;;0.83;80.71;99229.01;1432379;90;21818;-85
2021/12/03 06:05:00;;;;;;;6.20;2.70;;;;;;;0.86;81.23;99235.31;1414266;91;21764;-85
2021/12/03 06:07:26;;;;;;;3.40;2.13;;;;;;;0.84;80.72;99242.41;1424899;90;22916;-84
2021/12/03 06:09:52;;;;;;;9.87;2.67;;;;;;;0.86;79.36;99246.19;1420781;92;21632;-87
2021/12/03 06:12:18;;;;;;;4.83;3.37;;;;;;;0.88;79.59;99253.42;1424712;92;21644;-87
2021/12/03 06:14:44;;;;;;;6.07;2.47;;;;;;;0.92;80.21;99255.31;1417739;92;21733;-84
2021/12/03 06:17:13;;;;;;;8.53;3.13;;;;;;;0.87;78.29;99272.13;1420887;90;22622;-85
2021/12/03 06:19:40;;;;;;;6.67;3.30;;;;;;;0.92;79.63;99272.25;1416740;92;21759;-85
2021/12/03 06:22:08;;;;;;;5.67;2.00;;;;;;;0.97;79.51;99273.56;1421469;90;21680;-86
2021/12/03 06:24:35;;;;;;;6.80;2.20;;;;;;;0.94;78.37;99278.19;1433246;89;21685;-85
2021/12/03 06:27:01;;;;;;;5.43;2.50;;;;;;;0.93;78.52;99277.84;1439762;90;21741;-83
2021/12/03 06:29:28;;;;;;;6.57;2.17;;;;;;;0.98;78.56;99279.60;1450745;89;21751;-83
2021/12/03 06:31:54;;;;;;;4.73;1.90;;;;;;;0.96;78.50;99278.91;1454268;90;22751;-83
2021/12/03 06:34:20;;;;;;;4.77;2.37;;;;;;;0.98;77.03;99292.63;1437430;91;21888;-82
2021/12/03 06:36:46;;;;;;;6.73;2.37;;;;;;;1.01;76.78;99302.86;1423966;91;22658;-83
2021/12/03 06:39:13;;;;;;;4.17;2.10;;;;;;;1.03;76.62;99306.16;1422190;90;21777;-82
2021/12/03 06:41:39;;;;;;;10.00;3.03;;;;;;;1.02;75.31;99314.45;1403787;92;21698;-82
2021/12/03 06:44:08;;;;;;;6.03;2.63;;;;;;;1.06;76.51;99321.56;1410469;93;21704;-83
2021/12/03 06:46:35;;;;;;;5.87;2.73;;;;;;;1.10;76.99;99330.83;1402006;93;21867;-82
2021/12/03 06:49:02;;;;;;;9.53;3.10;;;;;;;1.08;76.05;99337.92;1409194;93;21712;-83
2021/12/03 06:51:30;;;;;;;6.13;2.57;;;;;;;1.11;77.26;99344.20;1408511;93;21701;-83
2021/12/03 06:54:05;;;;;;;7.07;3.70;;;;;;;1.08;76.07;99344.44;1411761;93;21702;-83
2021/12/03 06:56:48;;;;;;;6.80;3.37;;;;;;;1.11;77.27;99348.94;1402134;93;21873;-83
2021/12/03 06:59:01;;;;;;;5.27;2.97;;;;;;;1.11;77.56;99364.58;1400143;93;21688;-84
2021/12/03 07:01:27;;;;;;;4.60;2.10;;;;;;;1.10;77.53;99373.83;1389557;93;21675;-83
2021/12/03 07:03:53;;;;;;;4.73;2.70;;;;;;;1.08;76.78;99396.55;1411120;93;22499;-83
2021/12/03 07:06:19;;;;;;;8.67;3.43;;;;;;;1.11;76.72;99401.54;1415070;91;21824;-83
2021/12/03 07:08:45;;;;;;;7.10;2.63;;;;;;;1.15;76.95;99413.87;1429824;90;21560;-84
2021/12/03 07:11:11;;;;;;;4.17;2.50;;;;;;;1.17;76.75;99419.33;1441692;91;21627;-83
2021/12/03 07:13:37;;;;;;;4.23;2.20;;;;;;;1.16;75.71;99421.59;1410167;93;21519;-83
2021/12/03 07:16:05;;;;;;;6.77;3.30;;;;;;;1.19;76.32;99423.97;1414340;92;21665;-84
2021/12/03 07:18:31;;;;;;;6.97;3.17;;;;;;;1.22;76.49;99420.31;1407826;91;22288;-83
2021/12/03 07:20:58;;;;;;;6.57;2.93;;;;;;;1.26;76.00;99425.16;1415488;92;22699;-83
2021/12/03 07:23:24;;;;;;;8.10;2.97;;;;;;;1.24;74.98;99430.98;1407575;92;21902;-85
2021/12/03 07:25:50;;;;;;;9.40;3.57;;;;;;;1.29;75.77;99432.76;1414013;92;21772;-83
2021/12/03 07:28:18;;;;;;;6.40;2.07;;;;;;;1.28;75.94;99440.70;1412006;92;21385;-84
2021/12/03 07:30:44;;;;;;;9.10;2.70;;;;;;;1.30;75.75;99437.05;1406012;92;21731;-83
2021/12/03 07:33:14;;;;;;;11.13;3.63;;;;;;;1.34;75.85;99429.83;1411420;92;21693;-84
2021/12/03 07:35:38;;;;;;;7.10;2.87;;;;;;;1.39;76.23;99439.92;1411623;93;21715;-84
2021/12/03 07:38:05;;;;;;;7.60;3.67;;;;;;;1.37;75.25;99443.11;1415712;92;21539;-83
2021/12/03 07:40:31;;;;;;;7.47;2.40;;;;;;;1.32;74.46;99440.38;1409119;93;21756;-84
2021/12/03 07:42:57;;;;;;;9.30;2.93;;;;;;;1.35;74.51;99450.58;1413439;92;21923;-83
2021/12/03 07:45:23;;;;;;;5.80;2.10;;;;;;;1.35;74.75;99454.49;1410571;92;21904;-85
2021/12/03 07:47:50;;;;;;;9.87;3.30;;;;;;;1.39;74.30;99459.48;1411888;91;22846;-84
2021/12/03 07:50:16;;;;;;;5.93;2.07;;;;;;;1.42;74.91;99460.08;1430661;90;21821;-84
2021/12/03 07:52:42;;;;;;;10.67;4.60;;;;;;;1.42;73.40;99455.34;1432915;91;21874;-84
2021/12/03 07:55:10;;;;;;;8.77;3.70;;;;;;;1.49;75.18;99456.06;1403167;93;22149;-84
2021/12/03 07:57:36;;;;;;;5.33;3.07;;;;;;;1.55;74.81;99467.37;1418521;92;22382;-84
2021/12/03 08:00:07;;;;;;;8.97;4.10;;;;;;;1.53;73.82;99474.47;1409240;91;21777;-84
2021/12/03 08:02:33;;;;;;;6.15;2.22;;;;;;;1.57;74.20;99484.19;1411046;92;22864;-84
2021/12/03 08:04:59;;;;;;;10.80;3.93;;;;;;;1.56;71.71;99482.53;1434682;91;21606;-84
2021/12/03 08:07:51;;;;;;;6.10;2.83;;;;;;;1.57;72.39;99505.05;1406163;91;21886;-84
2021/12/03 08:10:18;;;;;;;6.70;2.70;;;;;;;1.62;73.60;99513.86;1407132;92;22744;-85
2021/12/03 08:12:50;;;;;;;12.30;4.20;;;;;;;1.60;71.97;99513.95;1416013;92;21837;-87
2021/12/03 08:15:30;;;;;;;13.93;4.23;;;;;;;1.67;72.20;99513.87;1402184;92;21794;-85
2021/12/03 08:17:56;;;;;;;10.80;3.70;;;;;;;1.67;72.20;99513.87;1423543;92;21907;-85
2021/12/03 08:20:26;;;;;;;6.30;2.13;;;;;;;1.67;72.88;99516.94;1429815;90;21781;-87
2021/12/03 08:22:52;;;;;;;5.63;2.50;;;;;;;1.71;72.18;99530.95;1437350;90;22360;-86
2021/12/03 08:25:20;;;;;;;13.17;3.20;;;;;;;1.73;72.07;99542.59;1415083;92;21721;-85
2021/12/03 08:27:46;;;;;;;8.17;3.30;;;;;;;1.75;71.52;99546.73;1409924;92;22724;-85
2021/12/03 08:30:13;;;;;;;5.90;2.70;;;;;;;1.77;71.87;99551.37;1427770;91;22839;-85
2021/12/03 08:32:42;;;;;;;7.90;2.90;;;;;;;1.80;70.51;99566.80;1407837;92;21760;-85
2021/12/03 08:35:09;;;;;;;6.63;2.50;;;;;;;1.80;70.51;99566.80;1417815;92;22726;-85
2021/12/03 08:37:36;;;;;;;8.97;4.13;;;;;;;1.86;70.64;99568.60;1424279;92;21948;-86
2021/12/03 08:40:05;;;;;;;6.70;2.90;;;;;;;1.86;70.64;99568.60;1409965;92;21856;-85
2021/12/03 08:42:31;;;;;;;5.50;3.00;;;;;;;1.90;71.10;99590.45;1410048;92;21810;-86
2021/12/03 08:44:59;;;;;;;8.27;3.63;;;;;;;1.90;71.10;99590.45;1423708;92;24013;-84
2021/12/03 08:47:25;;;;;;;4.20;2.37;;;;;;;1.94;70.68;99603.63;1438286;90;21325;-85
2021/12/03 08:49:54;;;;;;;14.57;3.93;;;;;;;1.97;70.61;99603.88;1419576;92;21809;-84
2021/12/03 08:54:51;;;;;;;14.07;4.67;;;;;;;1.98;71.44;99605.53;1414124;92;23777;-86
2021/12/03 08:57:25;;;;;;;13.23;4.50;;;;;;;2.02;71.08;99611.73;1431832;91;21971;-85
2021/12/03 08:59:55;;;;;;;6.13;2.13;;;;;;;2.00;70.47;99612.78;1409160;92;21883;-85
2021/12/03 09:02:23;;;;;;;8.77;3.17;;;;;;;2.03;70.09;99621.69;1432586;90;22086;-85
2021/12/03 09:04:50;;;;;;;9.83;3.47;;;;;;;2.03;70.09;99621.69;1415922;92;22018;-85
2021/12/03 09:07:18;;;;;;;8.23;2.37;;;;;;;2.04;70.33;99637.70;1421174;91;22846;-85
2021/12/03 09:09:48;;;;;;;10.43;3.30;;;;;;;2.09;71.57;99655.17;1431529;90;22042;-84
2021/12/03 09:12:15;;;;;;;6.80;3.53;;;;;;;2.09;71.57;99655.17;1404525;92;22060;-84
2021/12/03 09:14:44;;;;;;;8.13;2.47;;;;;;;2.03;69.82;99642.58;1424399;91;22911;-86
2021/12/03 09:17:29;;;;;;;25.40;5.30;;;;;;;2.03;69.82;99642.58;1418182;91;22073;-85
2021/12/03 09:19:56;;;;;;;8.53;3.33;;;;;;;2.05;69.99;99668.09;1428427;90;22087;-83
2021/12/03 09:22:26;;;;;;;7.17;2.50;;;;;;;2.05;69.99;99668.09;1409796;92;21903;-83
2021/12/03 09:24:42;;;;;;;12.20;3.80;;;;;;;2.13;70.71;99669.68;1432001;90;21903;-80
2021/12/03 09:27:08;;;;;;;6.57;2.57;;;;;;;2.52;73.29;99668.97;1416452;91;21858;-80
2021/12/03 09:29:36;;;;;;;7.50;3.43;;;;;;;2.52;73.29;99668.97;1414441;92;22111;-80
2021/12/03 09:32:03;;;;;;;7.77;3.20;;;;;;;2.61;69.70;99677.90;1426968;90;21898;-79
2021/12/03 09:34:31;;;;;;;8.63;3.30;;;;;;;2.67;67.95;99679.56;1426391;90;21964;-84
2021/12/03 09:36:58;;;;;;;7.93;3.30;;;;;;;2.58;67.94;99672.42;1410670;92;23087;-83
2021/12/03 09:39:25;;;;;;;6.37;2.97;;;;;;;2.58;67.94;99672.42;1418610;92;21905;-83
2021/12/03 09:41:54;;;;;;;8.83;2.93;;;;;;;2.54;68.98;99686.67;1393855;93;22135;-83
2021/12/03 09:44:22;;;;;;;6.43;2.53;;;;;;;2.42;68.17;99687.59;1414957;91;22134;-82
2021/12/03 09:46:50;;;;;;;7.57;2.50;;;;;;;2.34;67.13;99699.08;1408992;92;22207;-82
2021/12/03 09:54:28;;;;;;;10.07;3.63;;;;;;;2.36;67.43;99697.16;1440556;89;22099;-83
2021/12/03 09:57:03;;;;;;;7.93;3.87;;;;;;;2.43;67.22;99707.53;1452174;88;22085;-83
2021/12/03 10:02:28;;;;;;;5.90;2.93;;;;;;;2.58;67.86;99711.61;1454120;89;22121;-82
2021/12/03 10:05:32;;;;;;;7.37;2.80;;;;;;;2.52;65.41;99712.55;1457329;89;22164;-83
2021/12/03 10:13:47;;;;;;;8.87;2.77;;;;;;;2.61;66.03;99730.97;1462198;88;22076;-83
2021/12/03 10:19:33;;;;;;;10.90;3.77;;;;;;;2.56;65.78;99729.20;1457542;88;21375;-88
2021/12/03 10:22:22;;;;;;;8.38;4.45;;;;;;;2.62;66.01;99739.20;1465636;89;22151;-86
2021/12/03 10:25:13;;;;;;;5.67;2.60;;;;;;;2.55;65.46;99745.80;1451118;89;21397;-86
2021/12/03 10:44:27;;;;;;;;;;;;;;;2.47;65.78;99782.95;1465556;88;22151;-88
2021/12/03 10:52:29;;;;;;;8.13;4.07;;;;;;;2.68;67.01;99787.08;1460948;88;22142;-89
2021/12/03 11:15:15;;;;;;;10.67;3.37;;;;;;;3.85;63.09;99814.85;1460289;88;21419;-87
2021/12/03 11:17:50;;;;;;;8.88;3.10;;;;;;;3.86;60.36;99810.47;1455826;89;21448;-89
2021/12/03 11:39:44;;;;;;;11.53;4.27;;;;;;;5.20;54.29;99820.52;1412289;92;22559;-90
2021/12/03 12:03:12;;;;;;;4.23;2.63;;;;;;;4.93;55.86;99857.75;1420475;91;21643;-88
2021/12/03 12:55:43;;;;;;;;;;;;;;;5.61;54.35;99938.75;1453764;89;21591;-87
2021/12/03 13:59:07;;;;;;;6.47;3.70;;;;;;;5.72;51.73;100001.72;1428697;91;22674;-87
2021/12/03 14:06:29;;;;;;;16.10;8.53;;;;;;;4.88;54.52;100009.37;1448877;89;21389;-87
2021/12/03 14:44:52;;;;;;;8.37;2.40;;;;;;;1.73;65.96;100066.99;1475511;88;21888;-87
2021/12/03 14:50:08;;;;;;;15.60;7.27;;;;;;;1.56;65.25;100079.82;1476758;88;21761;-87
2021/12/03 14:54:58;;;;;;;153.53;63.45;;;;;;;1.44;66.41;100084.05;1449682;88;21818;-86
2021/12/03 14:57:33;;;;;;;;;;;;;;;1.39;66.15;100089.19;1477714;88;21922;-86
2021/12/03 15:00:32;;;;;;;112.57;44.10;;;;;;;1.29;68.50;100101.95;1481103;88;20302;-86
2021/12/03 15:03:26;;;;;;;39.57;17.40;;;;;;;1.18;68.39;100100.03;1462214;88;23747;-87
2021/12/03 15:05:56;;;;;;;10.73;5.40;;;;;;;1.06;69.99;100100.30;1461325;88;22018;-87
2021/12/03 15:08:21;;;;;;;15.50;4.63;;;;;;;0.94;70.49;100105.45;1474517;88;22414;-86
2021/12/03 15:11:06;;;;;;;9.70;4.63;;;;;;;0.83;71.41;100110.84;1476462;88;21564;-87
2021/12/03 15:13:31;;;;;;;15.63;5.87;;;;;;;0.75;69.93;100120.91;1477951;88;21590;-87
2021/12/03 15:21:26;;;;;;;17.20;8.83;;;;;;;0.60;72.03;100133.52;1469060;87;22617;-87
2021/12/03 15:26:35;;;;;;;21.33;7.60;;;;;;;0.51;70.39;100127.56;1480898;88;21658;-87
2021/12/03 15:29:23;;;;;;;21.20;8.60;;;;;;;0.50;70.74;100133.72;1493218;87;21575;-87
2021/12/03 15:34:07;;;;;;;18.27;8.53;;;;;;;0.35;72.02;100145.41;1492562;85;21532;-85
2021/12/03 15:36:42;;;;;;;18.17;9.90;;;;;;;0.27;73.39;100148.08;1466693;88;21608;-85
2021/12/03 16:08:16;;;;;;;40.90;17.90;;;;;;;-0.40;74.65;100162.66;1432451;90;21771;-84
2021/12/03 16:10:53;;;;;;;41.77;18.95;;;;;;;-0.40;75.78;100172.20;1436692;89;21796;-84
2021/12/03 16:13:27;;;;;;;27.65;13.08;;;;;;;-0.44;75.29;100178.03;1424839;91;22380;-83
2021/12/03 16:27:34;;;;;;;;;;;;;;;;;;;;;
2021/12/03 16:53:54;;;;;;;21.17;11.97;;;;;;;-1.01;78.02;100223.91;1478951;88;21589;-84
2021/12/03 16:56:23;;;;;;;24.47;12.05;;;;;;;-1.03;78.19;100227.08;1476207;87;21433;-85
2021/12/03 16:58:47;;;;;;;43.70;16.32;;;;;;;-1.08;78.90;100236.85;1474329;88;22866;-83
2021/12/03 17:03:57;;;;;;;57.23;17.40;;;;;;;-1.16;78.19;100248.92;1473962;88;21721;-84
2021/12/03 17:12:01;;;;;;;79.95;29.95;;;;;;;-1.13;77.82;100254.42;1476683;88;21506;-87
2021/12/03 17:47:20;;;;;;;102.45;42.50;;;;;;;-1.61;80.86;100261.98;1483438;87;21359;-82
2021/12/03 17:57:25;;;;;;;87.35;37.17;;;;;;;-1.76;83.11;100276.13;1473831;88;21360;-81
2021/12/03 17:59:43;;;;;;;107.30;45.70;;;;;;;-1.82;83.21;100274.20;1473355;88;21587;-82
2021/12/03 18:07:58;;;;;;;121.57;47.98;;;;;;;-1.89;83.38;100278.02;1480504;87;23649;-81
2021/12/03 18:43:19;;;;;;;95.97;41.18;;;;;;;-2.04;82.71;100281.34;1470717;87;21418;-82
2021/12/03 18:45:22;;;;;;;111.45;46.60;;;;;;;-2.20;82.38;100288.13;1428469;90;21629;-81
2021/12/03 18:58:02;;;;;;;105.05;47.35;;;;;;;-2.30;81.62;100314.48;1430521;90;21392;-80
2021/12/03 19:00:30;;;;;;;108.00;49.65;;;;;;;-2.31;81.55;100310.19;1432325;90;22374;-81